Time;durP1;ratioP1;P1;durP2;ratioP2;P2;SDS_P1;SDS_P2;PMS_P1;PMS_P2;Temp;Humidity;BMP_temperature;BMP_pressure;BME280_temperature;BME280_humidity;BME280_pressure;Samples;Min_cycle;Max_cycle;Signal;HPM_P1;HPM_P2
2022/04/26 03:37:57;;;;;;;16.43;3.53;;;;;;;17.66;40.35;94781.84;5032106;28;20919;-62
2022/04/26 03:40:24;;;;;;;16.43;3.23;;;;;;;17.73;39.45;94790.16;5031263;28;20483;-58
2022/04/26 03:42:51;;;;;;;13.17;4.30;;;;;;;17.91;39.11;94792.59;5031567;28;20542;-56
2022/04/26 03:45:18;;;;;;;10.80;3.77;;;;;;;18.10;38.80;94787.84;5031402;28;20450;-59
2022/04/26 03:47:45;;;;;;;11.23;4.67;;;;;;;18.26;39.09;94795.44;5031630;28;20447;-58
2022/04/26 03:50:12;;;;;;;13.43;3.80;;;;;;;18.36;38.46;94797.81;5031168;28;20443;-58
2022/04/26 03:52:41;;;;;;;16.30;5.07;;;;;;;18.31;38.46;94790.78;5031741;28;20763;-55
2022/04/26 03:55:08;;;;;;;9.73;4.50;;;;;;;18.50;38.47;94794.03;5031090;28;20436;-60
2022/04/26 03:57:35;;;;;;;8.37;3.37;;;;;;;18.27;38.74;94796.97;5030952;28;20446;-54
2022/04/26 04:00:03;;;;;;;14.77;3.57;;;;;;;18.35;39.02;94798.91;5030912;28;21092;-53
2022/04/26 04:02:31;;;;;;;14.93;4.00;;;;;;;18.29;39.41;94797.47;5031480;28;20444;-59
2022/04/26 04:04:58;;;;;;;20.17;4.10;;;;;;;18.23;39.32;94802.91;5030966;28;20534;-51
2022/04/26 04:07:25;;;;;;;26.67;5.20;;;;;;;18.29;39.34;94806.22;5031337;28;20459;-58
2022/04/26 04:09:52;;;;;;;19.87;4.83;;;;;;;18.46;38.73;94803.66;5031163;28;20497;-59
2022/04/26 04:12:19;;;;;;;23.67;5.03;;;;;;;18.55;38.69;94801.03;5031070;28;20487;-57
2022/04/26 04:14:46;;;;;;;17.70;4.80;;;;;;;18.77;38.34;94812.38;5031086;28;20436;-55
2022/04/26 04:17:14;;;;;;;19.90;5.70;;;;;;;18.86;38.23;94813.19;5030619;28;20467;-55
2022/04/26 04:19:40;;;;;;;22.33;4.80;;;;;;;18.93;38.50;94816.16;5030776;28;20478;-57
2022/04/26 04:22:07;;;;;;;35.70;5.00;;;;;;;18.75;38.78;94819.06;5031270;28;20599;-58
2022/04/26 04:24:34;;;;;;;25.27;5.27;;;;;;;18.78;38.16;94827.19;5030498;28;20475;-56
2022/04/26 04:27:01;;;;;;;18.77;5.60;;;;;;;18.72;38.53;94817.78;5030598;28;20460;-59
2022/04/26 04:29:28;;;;;;;22.70;5.63;;;;;;;18.75;38.50;94827.81;5031436;28;20451;-56
2022/04/26 04:31:55;;;;;;;22.53;6.57;;;;;;;18.83;39.03;94829.69;5030538;28;20460;-53
2022/04/26 04:34:22;;;;;;;15.40;6.17;;;;;;;19.10;37.50;94834.75;5030389;28;20452;-61
2022/04/26 04:36:50;;;;;;;22.30;6.83;;;;;;;19.08;38.33;94826.34;5029997;28;20521;-61
2022/04/26 04:39:20;;;;;;;18.70;5.63;;;;;;;19.20;38.61;94823.06;5030617;28;20437;-59
2022/04/26 04:41:47;;;;;;;15.93;6.80;;;;;;;19.37;37.94;94817.81;5030349;28;20802;-58
2022/04/26 04:44:14;;;;;;;24.30;6.33;;;;;;;19.20;38.20;94833.69;5030786;28;20539;-57
2022/04/26 04:46:41;;;;;;;24.57;6.40;;;;;;;19.23;37.98;94835.75;5029760;28;20436;-59
2022/04/26 04:49:08;;;;;;;19.07;6.70;;;;;;;19.28;38.54;94840.91;5030427;28;20432;-52
2022/04/26 04:51:35;;;;;;;27.97;6.53;;;;;;;19.28;38.21;94848.09;5030396;28;20455;-60
2022/04/26 04:54:04;;;;;;;25.63;7.33;;;;;;;19.42;38.41;94849.53;5030645;28;20444;-59
2022/04/26 04:56:31;;;;;;;25.27;6.83;;;;;;;19.50;38.36;94842.69;5029842;28;20448;-62
2022/04/26 04:58:58;;;;;;;25.67;7.17;;;;;;;19.81;37.37;94853.94;5030044;28;20444;-53
2022/04/26 05:01:25;;;;;;;29.77;9.10;;;;;;;19.78;37.53;94844.69;5029925;28;20484;-58
2022/04/26 05:03:52;;;;;;;30.13;9.13;;;;;;;19.75;37.62;94839.22;5030194;28;20984;-57
2022/04/26 05:06:20;;;;;;;25.00;8.97;;;;;;;19.81;37.22;94854.72;5030113;28;20539;-57
2022/04/26 05:08:47;;;;;;;21.73;8.33;;;;;;;19.53;37.01;94778.25;5030045;28;20935;-53
2022/04/26 05:11:14;;;;;;;24.47;7.83;;;;;;;20.10;36.97;94843.44;5029963;28;20582;-48
2022/04/26 05:13:41;;;;;;;21.73;8.03;;;;;;;20.00;37.04;94841.88;5029335;28;20985;-49
2022/04/26 05:16:08;;;;;;;21.13;7.30;;;;;;;20.07;36.66;94849.38;5029466;28;20509;-55
2022/04/26 05:18:35;;;;;;;23.90;7.53;;;;;;;19.46;37.21;94847.03;5029760;28;20470;-60
2022/04/26 05:21:09;;;;;;;28.93;7.17;;;;;;;18.95;38.31;94848.50;5029527;28;20838;-61
2022/04/26 05:26:21;;;;;;;20.93;6.97;;;;;;;19.88;37.72;94840.94;5029703;28;20424;-51
2022/04/26 05:28:48;;;;;;;19.77;6.90;;;;;;;20.00;38.52;94851.72;5029687;28;20448;-57
2022/04/26 05:31:15;;;;;;;18.40;7.10;;;;;;;20.47;37.96;94852.59;5029375;28;20832;-63
2022/04/26 05:33:43;;;;;;;20.03;7.33;;;;;;;20.73;36.84;94848.75;5030236;28;20536;-53
2022/04/26 05:36:10;;;;;;;24.57;6.97;;;;;;;20.73;37.10;94832.78;5029286;28;21013;-54
2022/04/26 05:38:37;;;;;;;28.53;6.97;;;;;;;21.01;36.55;94844.59;5029478;28;20477;-58
2022/04/26 05:41:04;;;;;;;30.83;7.63;;;;;;;20.89;36.52;94843.69;5029025;28;20544;-60
2022/04/26 05:43:33;;;;;;;31.23;8.90;;;;;;;20.98;36.63;94850.50;5029407;28;20822;-60
2022/04/26 05:46:00;;;;;;;23.87;8.23;;;;;;;21.01;36.82;94849.91;5028830;28;20455;-58
2022/04/26 05:48:27;;;;;;;22.47;9.30;;;;;;;21.04;36.76;94854.59;5029298;28;20922;-61
2022/04/26 05:50:55;;;;;;;24.73;11.57;;;;;;;21.08;36.61;94852.84;5028949;28;20455;-56
2022/04/26 05:53:22;;;;;;;34.90;13.33;;;;;;;21.01;36.49;94855.25;5029269;28;20442;-52
2022/04/26 05:55:49;;;;;;;23.97;13.37;;;;;;;21.14;36.61;94859.56;5029253;28;20473;-62
2022/04/26 05:58:16;;;;;;;29.77;12.73;;;;;;;21.29;36.12;94860.88;5029277;28;20459;-59
2022/04/26 06:00:43;;;;;;;31.43;12.33;;;;;;;21.49;36.14;94851.34;5028957;28;20475;-61
2022/04/26 06:03:11;;;;;;;22.27;10.83;;;;;;;21.52;35.89;94851.47;5029472;28;20530;-56
2022/04/26 06:05:38;;;;;;;28.37;10.90;;;;;;;21.49;36.01;94859.34;5029178;28;20475;-60
2022/04/26 06:08:07;;;;;;;20.77;10.87;;;;;;;21.77;35.86;94849.75;5029193;28;21426;-61
2022/04/26 06:10:37;;;;;;;18.93;8.90;;;;;;;21.72;35.78;94852.59;5028869;28;20448;-58
2022/04/26 06:13:04;;;;;;;20.57;8.87;;;;;;;21.80;35.32;94833.09;5029265;28;20436;-58
2022/04/26 06:15:31;;;;;;;25.10;7.77;;;;;;;21.91;35.27;94842.25;5029084;28;20949;-60
2022/04/26 06:17:58;;;;;;;26.87;6.70;;;;;;;21.96;35.14;94836.72;5028825;28;20475;-54
2022/04/26 06:20:25;;;;;;;23.07;5.80;;;;;;;22.11;35.10;94833.44;5028874;28;20504;-57
2022/04/26 06:22:53;;;;;;;20.47;5.53;;;;;;;21.86;35.80;94842.47;5029160;28;20448;-55
2022/04/26 06:25:20;;;;;;;24.07;6.10;;;;;;;21.79;35.62;94834.97;5028627;28;20470;-60
2022/04/26 06:27:49;;;;;;;15.93;5.30;;;;;;;22.01;35.30;94836.50;5033106;28;20426;-61
2022/04/26 06:30:22;;;;;;;19.23;4.60;;;;;;;22.21;34.66;94833.03;5033041;28;20442;-58
2022/04/26 06:32:49;;;;;;;14.97;4.70;;;;;;;22.30;34.73;94824.94;5033448;28;20447;-57
2022/04/26 06:35:16;;;;;;;10.10;4.00;;;;;;;22.32;33.72;94828.03;5032720;28;20839;-53
2022/04/26 06:37:43;;;;;;;17.47;5.10;;;;;;;22.49;34.12;94830.53;5032897;28;20444;-65
2022/04/26 06:40:10;;;;;;;23.93;4.97;;;;;;;22.49;33.38;94827.88;5032542;28;20489;-54
2022/04/26 06:42:37;;;;;;;20.00;4.30;;;;;;;22.56;34.00;94826.25;5032689;28;20448;-53
2022/04/26 06:45:04;;;;;;;16.60;4.50;;;;;;;22.82;34.10;94818.69;5032303;28;20436;-62
2022/04/26 06:47:31;;;;;;;15.13;4.27;;;;;;;22.89;32.75;94816.25;5032706;28;20434;-51
2022/04/26 06:49:59;;;;;;;10.50;3.57;;;;;;;23.03;32.73;94814.00;5032250;28;20462;-54
2022/04/26 06:52:25;;;;;;;14.40;4.00;;;;;;;23.10;31.55;94816.91;5032538;28;20189;-52
2022/04/26 06:54:52;;;;;;;12.87;3.53;;;;;;;23.11;31.16;94801.66;5032658;28;20499;-57
2022/04/26 06:57:19;;;;;;;12.23;3.40;;;;;;;23.12;31.08;94817.34;5032933;28;20465;-56
2022/04/26 06:59:46;;;;;;;19.97;4.13;;;;;;;23.16;31.60;94814.03;5032517;28;20535;-63
2022/04/26 07:02:14;;;;;;;11.00;3.83;;;;;;;23.11;31.45;94807.78;5032514;28;20483;-58
2022/04/26 07:04:41;;;;;;;24.23;4.53;;;;;;;23.41;30.96;94794.94;5030767;28;20452;-57
2022/04/26 07:07:08;;;;;;;18.27;3.20;;;;;;;23.60;31.58;94805.03;5031350;28;20444;-59
2022/04/26 07:09:36;;;;;;;9.63;3.30;;;;;;;23.67;32.62;94803.34;5031785;28;20455;-55
2022/04/26 07:12:04;;;;;;;13.90;2.80;;;;;;;23.58;30.96;94800.03;5031784;28;20458;-59
2022/04/26 07:14:31;;;;;;;9.23;3.07;;;;;;;23.75;30.00;94798.97;5030826;28;20228;-53
2022/04/26 07:17:00;;;;;;;14.60;3.50;;;;;;;23.65;31.16;94804.81;5031719;28;20743;-53
2022/04/26 07:19:27;;;;;;;6.20;2.17;;;;;;;23.91;30.16;94797.13;5032283;28;20186;-55
2022/04/26 07:21:54;;;;;;;7.07;2.30;;;;;;;24.02;30.08;94798.22;5031903;28;20680;-55
2022/04/26 07:24:31;;;;;;;10.67;2.50;;;;;;;24.05;29.75;94789.50;5031828;28;20209;-61
2022/04/26 07:26:58;;;;;;;8.57;2.17;;;;;;;23.95;29.15;94798.00;5031675;28;20199;-59
2022/04/26 07:29:26;;;;;;;8.13;1.87;;;;;;;24.25;28.82;94793.09;5032137;28;20228;-59
2022/04/26 07:31:53;;;;;;;6.57;1.80;;;;;;;24.34;28.95;94799.84;5031352;28;20212;-59
2022/04/26 07:34:26;;;;;;;12.53;2.33;;;;;;;24.51;29.44;94788.78;5031545;28;20660;-57
2022/04/26 07:37:04;;;;;;;8.80;2.07;;;;;;;24.62;28.76;94795.19;5030838;28;20206;-58
2022/04/26 07:39:34;;;;;;;9.37;2.57;;;;;;;24.61;28.72;94801.69;5031427;28;20213;-61
2022/04/26 07:42:04;;;;;;;10.03;2.67;;;;;;;24.37;28.06;94793.78;5031570;28;20232;-59
2022/04/26 07:44:31;;;;;;;11.87;2.57;;;;;;;24.25;27.76;94791.16;5035667;28;20204;-56
2022/04/26 07:46:58;;;;;;;10.07;2.90;;;;;;;24.60;28.01;94797.44;5042377;28;20199;-59
2022/04/26 07:49:27;;;;;;;6.20;2.10;;;;;;;25.12;28.08;94793.69;5051635;28;20245;-52
2022/04/26 07:51:54;;;;;;;10.53;2.13;;;;;;;25.04;27.83;94796.22;5051113;28;20270;-56
2022/04/26 07:54:21;;;;;;;13.27;2.23;;;;;;;25.30;28.61;94794.88;5051433;28;20355;-55
2022/04/26 07:56:48;;;;;;;4.43;1.80;;;;;;;25.31;27.95;94788.41;5051337;28;20279;-59
2022/04/26 07:59:15;;;;;;;10.47;1.97;;;;;;;25.33;28.08;94791.50;5051060;28;20200;-55
2022/04/26 08:01:42;;;;;;;9.73;1.67;;;;;;;25.45;28.04;94786.03;5051076;28;20737;-58
2022/04/26 08:04:09;;;;;;;5.90;1.50;;;;;;;25.53;27.75;94790.44;5050938;28;20208;-59
2022/04/26 08:06:36;;;;;;;7.23;1.70;;;;;;;25.60;27.95;94785.22;5051102;28;20287;-56
2022/04/26 08:09:03;;;;;;;5.87;1.57;;;;;;;25.55;27.17;94788.94;5051003;28;20200;-61
2022/04/26 08:11:30;;;;;;;5.57;1.50;;;;;;;25.64;27.21;94780.66;5050783;28;20272;-58
2022/04/26 08:13:57;;;;;;;6.57;1.60;;;;;;;25.49;27.21;94770.81;5051589;28;20195;-60
2022/04/26 08:16:24;;;;;;;5.80;1.70;;;;;;;25.73;26.62;94792.00;5050390;28;20199;-48
2022/04/26 08:18:51;;;;;;;10.70;2.13;;;;;;;25.77;27.20;94790.16;5050642;28;20406;-60
2022/04/26 08:21:18;;;;;;;13.97;2.60;;;;;;;25.69;27.41;94789.22;5050442;28;20289;-57
2022/04/26 08:29:19;;;;;;;5.47;2.03;;;;;;;25.93;28.07;94780.09;5051269;28;20219;-56
2022/04/26 08:31:46;;;;;;;5.43;1.70;;;;;;;25.79;27.42;94790.56;5050865;28;20196;-55
2022/04/26 08:34:13;;;;;;;12.03;2.30;;;;;;;25.95;27.33;94791.25;5050683;28;20196;-55
2022/04/26 08:36:40;;;;;;;10.20;2.07;;;;;;;25.79;27.76;94788.66;5049974;28;20189;-54
2022/04/26 08:39:07;;;;;;;11.43;2.23;;;;;;;26.05;27.94;94790.75;5050309;28;20742;-56
2022/04/26 08:41:34;;;;;;;12.50;2.30;;;;;;;26.33;28.24;94785.13;5050343;28;20224;-55
2022/04/26 08:44:07;;;;;;;12.90;2.73;;;;;;;26.26;27.73;94780.38;5050903;28;20209;-57
2022/04/26 08:52:08;;;;;;;14.97;3.30;;;;;;;26.44;27.94;94786.84;5050360;28;20663;-60
2022/04/26 08:54:35;;;;;;;11.67;2.70;;;;;;;26.12;27.95;94785.50;5050346;28;20197;-60
2022/04/26 08:57:09;;;;;;;23.13;3.53;;;;;;;26.40;29.03;94783.34;5050182;28;20219;-52
2022/04/26 08:59:46;;;;;;;17.73;3.30;;;;;;;26.66;28.61;94783.38;5049722;28;20565;-59
2022/04/26 09:02:19;;;;;;;15.57;3.40;;;;;;;26.70;27.99;94778.88;5050440;28;20270;-54
2022/04/26 09:04:52;;;;;;;17.83;3.70;;;;;;;26.89;28.07;94780.72;5049700;28;20295;-59
2022/04/26 09:07:30;;;;;;;14.70;3.40;;;;;;;27.15;28.39;94769.19;5050440;28;20671;-58
2022/04/26 09:10:11;;;;;;;15.57;3.30;;;;;;;26.90;29.09;94764.22;5049418;28;20246;-55
2022/04/26 09:13:09;;;;;;;17.23;3.43;;;;;;;27.04;28.06;94772.47;5049979;28;20228;-58
2022/04/26 09:15:43;;;;;;;16.67;3.00;;;;;;;26.96;27.45;94765.47;5049797;28;20200;-60
2022/04/26 09:18:21;;;;;;;21.40;4.27;;;;;;;27.08;27.71;94771.78;5049410;28;20236;-55
2022/04/26 09:20:51;;;;;;;10.20;3.10;;;;;;;27.26;27.60;94767.41;5049368;28;20196;-60
2022/04/26 09:23:21;;;;;;;11.80;2.87;;;;;;;27.48;27.62;94763.91;5050003;28;20200;-59
2022/04/26 09:25:52;;;;;;;15.77;3.03;;;;;;;27.63;27.39;94761.03;5049529;28;20208;-60
2022/04/26 09:28:22;;;;;;;15.10;3.00;;;;;;;27.45;28.26;94756.53;5048176;28;20227;-59
2022/04/26 09:30:50;;;;;;;29.97;3.90;;;;;;;27.60;27.58;94759.06;5049151;28;20196;-55
2022/04/26 09:33:38;;;;;;;13.77;3.17;;;;;;;27.99;27.40;94740.72;5049758;28;20204;-61
2022/04/26 09:36:10;;;;;;;17.00;3.20;;;;;;;28.26;27.08;94728.66;5048820;28;20723;-57
2022/04/26 09:38:37;;;;;;;19.30;3.53;;;;;;;27.57;26.21;94750.94;5049516;28;20649;-61
2022/04/26 09:41:07;;;;;;;12.10;2.57;;;;;;;27.94;26.49;94727.53;5048630;28;20228;-58
2022/04/26 09:43:34;;;;;;;16.03;2.93;;;;;;;28.32;26.52;94743.31;5049792;28;20208;-59
2022/04/26 09:46:04;;;;;;;13.43;3.47;;;;;;;28.44;25.47;94745.75;5049122;28;20212;-56
2022/04/26 09:48:38;;;;;;;16.03;2.97;;;;;;;28.96;25.88;94740.03;5049154;28;20210;-60
2022/04/26 09:51:07;;;;;;;15.00;2.50;;;;;;;28.95;25.47;94735.81;5048904;28;20200;-61
2022/04/26 09:53:35;;;;;;;8.07;2.53;;;;;;;28.75;25.08;94734.50;5049522;28;20199;-61
2022/04/26 09:56:04;;;;;;;19.33;3.00;;;;;;;29.14;25.67;94729.41;5048460;28;20270;-59
2022/04/26 09:58:49;;;;;;;15.90;2.77;;;;;;;29.58;25.19;94737.34;5048969;28;20273;-57
2022/04/26 10:01:16;;;;;;;10.83;2.90;;;;;;;29.60;24.68;94718.81;5048601;28;20207;-57
2022/04/26 10:03:46;;;;;;;12.47;3.37;;;;;;;29.57;25.57;94727.69;5049502;28;20672;-60
2022/04/26 10:06:16;;;;;;;10.43;2.87;;;;;;;29.81;24.81;94729.75;5048651;28;20196;-57
2022/04/26 10:08:45;;;;;;;16.93;3.37;;;;;;;29.16;24.59;94718.97;5049319;28;20427;-62
2022/04/26 10:11:12;;;;;;;12.57;3.10;;;;;;;29.42;24.80;94715.28;5048953;28;20214;-55
2022/04/26 10:13:39;;;;;;;11.67;3.23;;;;;;;29.55;25.11;94711.88;5049541;28;20204;-60
2022/04/26 10:16:12;;;;;;;12.33;3.23;;;;;;;29.77;24.98;94718.16;5049060;28;20192;-53
2022/04/26 10:18:44;;;;;;;11.97;3.40;;;;;;;29.96;24.26;94719.75;5048558;28;20228;-56
2022/04/26 10:21:32;;;;;;;15.10;3.30;;;;;;;30.32;23.98;94705.94;5048666;28;20236;-57
2022/04/26 10:24:12;;;;;;;13.43;3.03;;;;;;;30.60;23.44;94716.78;5049158;28;20207;-56
2022/04/26 10:26:40;;;;;;;15.90;3.30;;;;;;;30.69;23.39;94714.44;5048319;28;20203;-61
2022/04/26 10:29:07;;;;;;;13.97;2.40;;;;;;;30.41;23.08;94709.06;5048856;28;20200;-56
2022/04/26 10:31:38;;;;;;;13.20;2.47;;;;;;;30.35;22.37;94707.09;5048561;28;20208;-57
2022/04/26 10:34:26;;;;;;;12.90;2.70;;;;;;;30.53;22.49;94705.94;5049372;28;20663;-59
2022/04/26 10:36:56;;;;;;;18.27;2.73;;;;;;;30.60;22.70;94700.53;5048154;28;20679;-53
2022/04/26 10:39:31;;;;;;;9.23;2.50;;;;;;;31.10;22.29;94686.97;5049214;28;20589;-54
2022/04/26 10:42:22;;;;;;;10.97;2.70;;;;;;;31.09;21.87;94688.16;5048718;28;20220;-61
2022/04/26 10:44:49;;;;;;;7.83;2.00;;;;;;;31.60;21.96;94686.47;5041057;28;20282;-57
2022/04/26 10:47:19;;;;;;;9.67;1.90;;;;;;;31.47;20.84;94687.28;5048779;28;20246;-56
2022/04/26 10:49:47;;;;;;;9.23;2.27;;;;;;;31.33;21.31;94687.31;5048354;28;20208;-57
2022/04/26 10:52:14;;;;;;;10.47;2.10;;;;;;;31.16;20.55;94683.50;5048709;28;20200;-57
2022/04/26 10:54:47;;;;;;;7.40;2.27;;;;;;;31.21;20.90;94685.03;5048485;28;20192;-53
2022/04/26 10:57:19;;;;;;;7.80;2.20;;;;;;;31.41;20.21;94669.91;5049091;28;20212;-54
2022/04/26 10:59:48;;;;;;;12.87;2.83;;;;;;;31.66;20.73;94678.72;5047985;28;20203;-52
2022/04/26 11:02:17;;;;;;;11.33;2.63;;;;;;;31.46;21.14;94672.97;5047357;28;20220;-56
2022/04/26 11:04:45;;;;;;;9.07;2.53;;;;;;;31.80;21.26;94673.22;5047939;28;20620;-55
2022/04/26 11:07:17;;;;;;;11.23;2.63;;;;;;;31.41;21.41;94678.81;5049017;28;20193;-60
2022/04/26 11:09:49;;;;;;;8.67;2.97;;;;;;;31.57;21.21;94667.50;5047881;28;20287;-51
2022/04/26 11:12:20;;;;;;;12.93;2.57;;;;;;;31.36;20.87;94668.38;5050107;28;20622;-59
2022/04/26 11:14:48;;;;;;;11.30;2.20;;;;;;;31.79;20.66;94674.38;5052295;28;20205;-58
2022/04/26 11:17:16;;;;;;;5.90;1.93;;;;;;;31.91;19.86;94663.13;5052246;28;20232;-53
2022/04/26 11:19:55;;;;;;;7.97;2.37;;;;;;;32.65;19.41;94668.81;5052269;28;20312;-58
2022/04/26 11:22:24;;;;;;;8.87;2.07;;;;;;;32.40;18.16;94660.06;5052954;28;20223;-53
2022/04/26 11:28:08;;;;;;;8.83;2.50;;;;;;;32.95;19.10;94659.25;5052109;28;20254;-58
2022/04/26 11:30:35;;;;;;;6.87;2.10;;;;;;;33.12;19.31;94658.31;5051438;28;20701;-61
2022/04/26 11:33:08;;;;;;;9.13;2.53;;;;;;;32.13;18.62;94656.41;5051839;28;20200;-61
2022/04/26 11:35:38;;;;;;;10.83;2.30;;;;;;;32.21;19.22;94660.59;5051568;28;20204;-54
2022/04/26 11:38:09;;;;;;;8.73;2.17;;;;;;;31.99;19.53;94664.59;5051846;28;20277;-58
2022/04/26 11:40:38;;;;;;;10.90;2.40;;;;;;;32.38;19.22;94661.63;5051249;28;20291;-57
2022/04/26 11:43:10;;;;;;;6.67;2.07;;;;;;;32.00;19.06;94655.31;5050723;28;20294;-58
2022/04/26 11:45:40;;;;;;;12.07;2.77;;;;;;;32.16;19.57;94662.94;5051365;28;20276;-58
2022/04/26 11:48:10;;;;;;;12.17;2.60;;;;;;;31.43;20.25;94662.16;5051473;28;20212;-60
2022/04/26 11:50:37;;;;;;;9.80;1.77;;;;;;;30.73;19.83;94661.13;5050746;28;20184;-52
2022/04/26 11:53:07;;;;;;;6.60;1.63;;;;;;;30.18;19.60;94665.38;5050252;28;20196;-58
2022/04/26 11:55:42;;;;;;;6.63;1.97;;;;;;;30.22;19.08;94655.31;5051076;28;20648;-58
2022/04/26 11:58:27;;;;;;;6.30;1.90;;;;;;;31.14;19.41;94649.84;5051726;28;20580;-60
2022/04/26 12:01:03;;;;;;;6.47;1.53;;;;;;;31.34;18.26;94645.53;5051213;28;20212;-58
2022/04/26 12:03:33;;;;;;;7.47;1.30;;;;;;;32.01;17.74;94635.16;5051197;28;20219;-57
2022/04/26 12:06:05;;;;;;;4.03;1.17;;;;;;;32.44;17.41;94636.44;5050763;28;20637;-62
2022/04/26 12:08:55;;;;;;;2.20;1.20;;;;;;;31.89;17.11;94624.81;5051136;28;20571;-57
2022/04/26 12:11:27;;;;;;;8.63;1.60;;;;;;;32.85;17.79;94622.84;5047594;28;20204;-56
2022/04/26 12:14:07;;;;;;;10.47;1.90;;;;;;;33.16;17.21;94629.16;5051276;28;20290;-58
2022/04/26 12:16:42;;;;;;;3.50;1.30;;;;;;;33.57;16.21;94627.13;5049578;28;20235;-63
2022/04/26 12:19:10;;;;;;;5.50;1.70;;;;;;;32.60;15.74;94628.53;5050543;28;20200;-58
2022/04/26 12:21:49;;;;;;;7.40;1.83;;;;;;;31.96;17.23;94624.75;5050514;28;20699;-58
2022/04/26 12:24:21;;;;;;;6.03;1.83;;;;;;;31.92;18.43;94623.22;5051006;28;20208;-55
2022/04/26 12:27:25;;;;;;;8.30;1.90;;;;;;;31.67;18.91;94626.06;5050570;28;20204;-57
2022/04/26 12:29:53;;;;;;;7.13;2.23;;;;;;;32.00;19.27;94633.63;5027935;28;20204;-60
2022/04/26 12:32:21;;;;;;;7.63;1.60;;;;;;;31.82;18.27;94641.09;5047099;28;20204;-60
2022/04/26 12:34:56;;;;;;;4.70;1.50;;;;;;;31.37;18.07;94639.38;5050687;28;20282;-60
2022/04/26 12:37:26;;;;;;;5.67;1.63;;;;;;;32.28;17.54;94633.41;5051126;28;20196;-50
2022/04/26 12:39:58;;;;;;;6.47;1.80;;;;;;;32.92;17.87;94635.59;5050053;28;20236;-54
2022/04/26 12:42:30;;;;;;;11.07;1.83;;;;;;;32.78;17.58;94660.94;5050642;28;20223;-59
2022/04/26 12:45:00;;;;;;;31.93;3.00;;;;;;;32.52;20.07;94670.47;5050516;28;20224;-61
2022/04/26 12:53:00;;;;;;;15.13;2.20;;;;;;;31.18;21.01;94672.28;5050738;28;20638;-58
2022/04/26 12:55:33;;;;;;;16.67;2.63;;;;;;;29.88;21.63;94668.41;5050058;28;20177;-60
2022/04/26 12:58:08;;;;;;;11.63;2.27;;;;;;;29.18;22.00;94653.88;5050618;28;20723;-57
2022/04/26 13:00:42;;;;;;;6.20;2.07;;;;;;;30.25;21.99;94659.97;5049770;28;20212;-59
2022/04/26 13:03:12;;;;;;;19.73;2.13;;;;;;;31.25;21.52;94656.00;5050321;28;20989;-55
2022/04/26 13:05:45;;;;;;;26.50;2.53;;;;;;;30.64;21.57;94666.16;5049770;28;20299;-53
2022/04/26 13:08:17;;;;;;;7.50;1.83;;;;;;;30.74;22.08;94662.69;5050245;28;20211;-59
2022/04/26 13:10:47;;;;;;;16.60;1.77;;;;;;;30.01;22.42;94673.44;5049152;28;20195;-61
2022/04/26 13:13:15;;;;;;;16.63;1.80;;;;;;;30.75;22.15;94669.63;5050155;28;20246;-56
2022/04/26 13:15:43;;;;;;;18.83;2.40;;;;;;;30.99;22.41;94672.69;5049503;28;20737;-56
2022/04/26 13:18:14;;;;;;;19.20;1.87;;;;;;;30.81;21.30;94675.44;5049533;28;20232;-55
2022/04/26 13:20:41;;;;;;;11.77;1.90;;;;;;;30.63;20.99;94672.75;5049535;28;20204;-60
2022/04/26 13:23:15;;;;;;;14.30;1.77;;;;;;;30.92;21.10;94668.09;5050210;28;20345;-58
2022/04/26 13:25:43;;;;;;;6.33;1.27;;;;;;;30.33;22.20;94680.44;5049632;28;20249;-54
2022/04/26 13:28:11;;;;;;;12.10;1.57;;;;;;;31.02;22.49;94666.53;5049560;28;20208;-57
2022/04/26 13:30:38;;;;;;;8.50;1.40;;;;;;;30.78;22.28;94674.25;5049122;28;20215;-56
2022/04/26 13:33:05;;;;;;;8.57;1.80;;;;;;;30.97;22.19;94675.06;5050063;28;20227;-56
2022/04/26 13:35:33;;;;;;;5.47;1.53;;;;;;;30.60;22.47;94668.09;5048688;28;20200;-55
2022/04/26 13:38:01;;;;;;;7.47;1.90;;;;;;;30.76;22.73;94665.78;5049407;28;20201;-59
2022/04/26 13:40:28;;;;;;;7.03;1.40;;;;;;;31.22;22.66;94649.44;5048599;28;20208;-59
2022/04/26 13:42:56;;;;;;;10.17;1.77;;;;;;;30.68;22.72;94664.22;5049357;28;20224;-59
2022/04/26 13:45:43;;;;;;;6.13;1.50;;;;;;;30.63;22.91;94651.09;5049153;28;20618;-59
2022/04/26 13:48:14;;;;;;;5.47;1.80;;;;;;;31.08;22.21;94654.91;5049706;28;20239;-58
2022/04/26 13:50:41;;;;;;;8.40;1.93;;;;;;;31.21;22.26;94657.94;5047501;28;20200;-59
2022/04/26 13:53:08;;;;;;;6.83;1.60;;;;;;;31.68;22.28;94643.84;5049724;28;20199;-53
2022/04/26 13:55:35;;;;;;;6.43;1.60;;;;;;;30.78;22.77;94641.78;5048986;28;20218;-59
2022/04/26 13:58:20;;;;;;;9.40;1.97;;;;;;;31.13;22.60;94651.03;5049317;28;20183;-55
2022/04/26 14:00:46;;;;;;;12.93;2.00;;;;;;;31.49;22.35;94641.63;5048326;28;20219;-56
2022/04/26 14:03:13;;;;;;;7.80;2.33;;;;;;;31.68;22.08;94638.44;5049358;28;20227;-59
2022/04/26 14:05:41;;;;;;;6.43;1.50;;;;;;;31.27;22.55;94649.06;5049402;28;20200;-51
2022/04/26 14:08:08;;;;;;;11.60;1.73;;;;;;;31.29;22.69;94654.84;5049692;28;20192;-56
2022/04/26 14:10:35;;;;;;;4.47;1.33;;;;;;;30.24;23.54;94654.91;5048840;28;20192;-53
2022/04/26 14:13:02;;;;;;;5.83;1.23;;;;;;;30.69;23.45;94663.06;5049400;28;20204;-59
2022/04/26 14:23:45;;;;;;;5.50;1.67;;;;;;;29.64;24.98;94714.22;5049041;28;20216;-58
2022/04/26 14:26:12;;;;;;;6.97;1.73;;;;;;;28.66;25.56;94725.19;5049044;28;20219;-58
2022/04/26 14:28:39;;;;;;;4.07;1.60;;;;;;;28.05;26.05;94728.44;5049339;28;20201;-61
2022/04/26 14:31:06;;;;;;;7.53;1.57;;;;;;;28.10;25.80;94738.13;5048281;28;20200;-57
2022/04/26 14:33:33;;;;;;;10.57;1.73;;;;;;;27.89;26.24;94746.72;5049148;28;20288;-62
2022/04/26 14:36:01;;;;;;;6.80;1.60;;;;;;;27.70;26.19;94754.97;5048748;28;20702;-55
2022/04/26 14:38:27;;;;;;;4.63;1.83;;;;;;;27.86;26.06;94761.66;5048974;28;20200;-57
2022/04/26 14:40:54;;;;;;;5.73;1.53;;;;;;;27.92;26.51;94756.72;5048368;28;20220;-57
2022/04/26 14:43:21;;;;;;;7.03;2.00;;;;;;;27.92;26.15;94767.50;5048627;28;20222;-53
2022/04/26 14:45:50;;;;;;;4.03;1.90;;;;;;;27.77;25.84;94776.59;5048428;28;20228;-59
2022/04/26 14:48:17;;;;;;;14.57;1.90;;;;;;;27.32;26.23;94771.34;5051890;28;20200;-59
2022/04/26 14:50:55;;;;;;;14.50;2.00;;;;;;;26.45;27.32;94799.16;5052430;28;20281;-56
2022/04/26 14:53:23;;;;;;;8.43;1.73;;;;;;;26.18;27.56;94805.56;5052805;28;20196;-56
2022/04/26 14:56:06;;;;;;;7.87;1.47;;;;;;;26.19;27.75;94806.31;5051740;28;20664;-60
2022/04/26 14:58:52;;;;;;;4.10;1.30;;;;;;;25.97;27.36;94815.84;5052664;28;20195;-59
2022/04/26 15:01:19;;;;;;;13.13;1.40;;;;;;;25.93;27.56;94805.06;5051683;28;20203;-55
2022/04/26 15:03:46;;;;;;;7.90;1.40;;;;;;;26.32;28.61;94800.44;5052616;28;20240;-60
2022/04/26 15:06:13;;;;;;;4.07;1.37;;;;;;;25.77;30.07;94806.25;5052055;28;20188;-55
2022/04/26 15:11:25;;;;;;;3.33;1.20;;;;;;;26.48;30.01;94819.94;5051757;28;20208;-56
2022/04/26 15:16:57;;;;;;;2.17;1.20;;;;;;;26.75;29.93;94818.88;5049320;28;20215;-53
2022/04/26 15:19:24;;;;;;;6.17;1.97;;;;;;;27.12;29.77;94816.41;5049394;28;21064;-60
2022/04/26 15:21:51;;;;;;;4.03;1.83;;;;;;;27.59;29.56;94813.28;5050514;28;20204;-57
2022/04/26 15:24:18;;;;;;;3.37;1.47;;;;;;;26.60;29.67;94817.09;5052626;28;20222;-50
2022/04/26 15:26:45;;;;;;;5.43;1.73;;;;;;;27.26;28.62;94821.22;5051361;28;20279;-58
2022/04/26 15:29:12;;;;;;;3.90;2.13;;;;;;;27.13;29.15;94823.34;5052315;28;20197;-54
2022/04/26 15:31:39;;;;;;;4.10;1.23;;;;;;;27.16;28.17;94829.91;5051406;28;20198;-64
2022/04/26 15:34:05;;;;;;;5.10;2.03;;;;;;;27.31;28.33;94829.00;5051760;28;20197;-59
2022/04/26 15:36:33;;;;;;;2.93;1.70;;;;;;;26.92;28.53;94828.38;5051597;28;20208;-60
2022/04/26 15:39:00;;;;;;;4.03;1.73;;;;;;;27.07;28.35;94832.06;5051908;28;20204;-60
2022/04/26 15:41:27;;;;;;;6.27;2.00;;;;;;;26.76;29.55;94839.28;5050741;28;20236;-56
2022/04/26 15:43:54;;;;;;;4.43;1.83;;;;;;;26.80;29.62;94826.69;5051693;28;20671;-62
2022/04/26 15:46:41;;;;;;;2.77;1.53;;;;;;;27.00;28.76;94820.09;5050869;28;20234;-56
2022/04/26 15:49:09;;;;;;;2.93;1.33;;;;;;;27.04;29.48;94820.91;5051828;28;20201;-58
2022/04/26 15:51:37;;;;;;;5.80;1.70;;;;;;;26.59;30.19;94812.81;5050834;28;20671;-60
2022/04/26 15:54:05;;;;;;;3.83;1.07;;;;;;;26.32;30.08;94816.56;5051503;28;20207;-57